createdAt,value
2023-02-11T00:00:26.326Z,11.30
2023-02-11T00:02:54.069Z,10.97
2023-02-11T00:05:23.126Z,13.07
2023-02-11T00:07:51.005Z,11.90
2023-02-11T00:10:19.102Z,12.27
2023-02-11T00:12:46.972Z,11.70
2023-02-11T00:15:14.766Z,13.27
2023-02-11T00:17:42.441Z,11.17
2023-02-11T00:20:10.967Z,14.20
2023-02-11T00:22:40.341Z,10.37
2023-02-11T00:25:08.462Z,14.43
2023-02-11T00:27:37.373Z,10.80
2023-02-11T00:30:05.661Z,19.57
2023-02-11T00:32:33.498Z,17.40
2023-02-11T00:35:01.545Z,20.07
2023-02-11T00:37:29.522Z,17.20
2023-02-11T00:39:58.885Z,18.80
2023-02-11T00:42:27.194Z,15.07
2023-02-11T00:44:55.042Z,16.40
2023-02-11T00:47:23.025Z,15.93
2023-02-11T00:49:50.885Z,18.07
2023-02-11T00:52:18.572Z,18.93
2023-02-11T00:54:46.249Z,14.07
2023-02-11T00:57:15.264Z,15.20
2023-02-11T00:59:42.938Z,13.73
2023-02-11T01:02:10.946Z,14.90
2023-02-11T01:04:38.620Z,14.70
2023-02-11T01:07:06.325Z,12.70
2023-02-11T01:09:34.001Z,14.50
2023-02-11T01:12:01.959Z,15.03
2023-02-11T01:14:31.487Z,12.50
2023-02-11T01:16:59.213Z,16.20
2023-02-11T01:19:26.942Z,12.53
2023-02-11T01:21:54.613Z,12.40
2023-02-11T01:24:22.313Z,11.20
2023-02-11T01:26:49.967Z,14.00
2023-02-11T01:29:17.730Z,12.30
2023-02-11T01:31:46.832Z,13.27
2023-02-11T01:34:14.537Z,12.73
2023-02-11T01:36:42.247Z,12.30
2023-02-11T01:39:09.930Z,14.77
2023-02-11T01:41:37.867Z,12.30
2023-02-11T01:44:25.680Z,12.37
2023-02-11T01:46:55.243Z,11.37
2023-02-11T01:49:24.271Z,12.70
2023-02-11T01:51:54.498Z,11.60
2023-02-11T01:54:40.722Z,9.27
2023-02-11T01:57:24.758Z,12.10
2023-02-11T01:59:58.652Z,17.70
2023-02-11T02:02:31.014Z,12.57
2023-02-11T02:05:04.346Z,14.17
2023-02-11T02:07:35.731Z,11.60
2023-02-11T02:10:05.903Z,10.30
2023-02-11T02:12:33.817Z,11.77
2023-02-11T02:15:20.726Z,9.67
2023-02-11T02:17:58.271Z,14.70
2023-02-11T02:20:40.452Z,9.77
2023-02-11T02:23:21.340Z,10.00
2023-02-11T02:26:10.183Z,9.10
2023-02-11T02:29:18.253Z,12.20
2023-02-11T02:31:57.358Z,9.47
2023-02-11T02:34:30.183Z,8.57
2023-02-11T02:37:01.643Z,10.23
2023-02-11T02:39:32.153Z,10.57
2023-02-11T02:42:00.056Z,11.03
2023-02-11T02:44:28.635Z,9.13
2023-02-11T02:46:56.719Z,9.10
2023-02-11T02:49:26.394Z,9.47
2023-02-11T02:52:01.839Z,12.33
2023-02-11T02:54:53.511Z,10.73
2023-02-11T02:57:29.769Z,9.83
2023-02-11T03:00:09.118Z,8.57
2023-02-11T03:02:38.825Z,10.50
2023-02-11T03:05:13.385Z,8.63
2023-02-11T03:07:43.116Z,11.73
2023-02-11T03:10:13.590Z,9.80
2023-02-11T03:12:41.444Z,8.73
2023-02-11T03:15:10.354Z,9.30
2023-02-11T03:17:38.629Z,7.13
2023-02-11T03:20:08.754Z,9.87
2023-02-11T03:22:38.274Z,9.93
2023-02-11T03:25:06.498Z,9.93
2023-02-11T03:27:35.465Z,8.30
2023-02-11T03:30:07.166Z,8.70
2023-02-11T03:32:37.553Z,8.30
2023-02-11T03:35:06.585Z,9.23
2023-02-11T03:37:37.730Z,6.43
2023-02-11T03:40:07.823Z,8.80
2023-02-11T03:42:36.940Z,9.33
2023-02-11T03:45:06.974Z,10.00
2023-02-11T03:47:36.195Z,10.03
2023-02-11T03:50:04.578Z,8.47
2023-02-11T03:52:32.768Z,8.30
2023-02-11T03:55:02.185Z,8.87
2023-02-11T03:57:30.427Z,7.63
2023-02-11T03:59:59.192Z,8.80
2023-02-11T04:02:28.704Z,10.23
2023-02-11T04:04:56.658Z,9.17
2023-02-11T04:07:24.953Z,9.10
2023-02-11T04:09:52.939Z,7.70
2023-02-11T04:12:22.001Z,5.70
2023-02-11T04:14:49.698Z,12.40
2023-02-11T04:17:17.622Z,6.10
2023-02-11T04:19:45.509Z,9.97
2023-02-11T04:22:13.371Z,5.67
2023-02-11T04:24:41.310Z,9.33
2023-02-11T04:27:09.192Z,5.53
2023-02-11T04:29:38.666Z,7.90
2023-02-11T04:32:06.633Z,7.80
2023-02-11T04:34:34.657Z,7.40
2023-02-11T04:37:02.553Z,6.57
2023-02-11T04:39:31.103Z,7.67
2023-02-11T04:41:59.130Z,6.07
2023-02-11T04:44:27.618Z,6.77
2023-02-11T04:46:57.047Z,8.37
2023-02-11T04:49:24.992Z,6.07
2023-02-11T04:51:53.275Z,5.47
2023-02-11T04:54:22.085Z,8.43
2023-02-11T04:56:51.487Z,5.37
2023-02-11T04:59:19.358Z,5.53
2023-02-11T05:01:47.591Z,7.30
2023-02-11T05:04:16.829Z,7.17
2023-02-11T05:06:44.985Z,7.50
2023-02-11T05:09:12.775Z,7.33
2023-02-11T05:11:40.465Z,5.30
2023-02-11T05:14:08.296Z,5.73
2023-02-11T05:16:36.842Z,7.13
2023-02-11T05:19:04.769Z,4.97
2023-02-11T05:21:33.822Z,6.73
2023-02-11T05:24:01.597Z,6.80
2023-02-11T05:26:29.327Z,6.27
2023-02-11T05:28:57.505Z,4.90
2023-02-11T05:31:25.325Z,6.07
2023-02-11T05:33:53.584Z,6.50
2023-02-11T05:36:21.559Z,6.10
2023-02-11T05:38:51.374Z,9.23
2023-02-11T05:41:19.188Z,6.70
2023-02-11T05:43:50.284Z,9.70
2023-02-11T05:46:18.417Z,6.07
2023-02-11T05:48:46.752Z,7.67
2023-02-11T05:51:14.586Z,5.80
2023-02-11T05:53:42.921Z,5.40
2023-02-11T05:56:12.439Z,6.93
2023-02-11T05:58:40.269Z,4.93
2023-02-11T06:01:07.954Z,4.50
2023-02-11T06:03:35.847Z,4.60
2023-02-11T06:06:03.914Z,8.20
2023-02-11T06:08:31.794Z,6.83
2023-02-11T06:11:00.240Z,5.77
2023-02-11T06:13:29.593Z,6.10
2023-02-11T06:15:58.763Z,4.03
2023-02-11T06:18:26.752Z,5.40
2023-02-11T06:20:54.736Z,4.67
2023-02-11T06:23:22.855Z,6.67
2023-02-11T06:25:51.319Z,5.67
2023-02-11T06:28:19.472Z,5.43
2023-02-11T06:30:49.321Z,6.40
2023-02-11T06:33:17.314Z,7.00
2023-02-11T06:35:45.115Z,7.20
2023-02-11T06:38:13.182Z,5.83
2023-02-11T06:40:40.910Z,5.03
2023-02-11T06:43:09.144Z,4.87
2023-02-11T06:45:36.798Z,4.97
2023-02-11T06:48:06.478Z,5.60
2023-02-11T06:50:34.336Z,6.23
2023-02-11T06:53:02.733Z,5.73
2023-02-11T06:55:30.654Z,7.53
2023-02-11T06:57:58.529Z,3.93
2023-02-11T07:00:26.544Z,7.97
2023-02-11T07:02:54.842Z,4.87
2023-02-11T07:05:23.863Z,4.90
2023-02-11T07:07:51.557Z,6.00
2023-02-11T07:10:19.349Z,6.80
2023-02-11T07:12:47.334Z,4.60
2023-02-11T07:15:15.030Z,5.63
2023-02-11T07:17:43.093Z,5.30
2023-02-11T07:20:12.430Z,5.73
2023-02-11T07:22:41.720Z,5.23
2023-02-11T07:25:09.894Z,6.50
2023-02-11T07:27:37.679Z,7.17
2023-02-11T07:30:07.483Z,5.43
2023-02-11T07:32:35.220Z,6.30
2023-02-11T07:35:03.803Z,3.83
2023-02-11T07:37:31.531Z,7.00
2023-02-11T07:40:00.935Z,4.57
2023-02-11T07:42:28.631Z,4.87
2023-02-11T07:44:56.966Z,6.03
2023-02-11T07:47:24.954Z,5.70
2023-02-11T07:49:58.437Z,4.10
2023-02-11T07:52:26.417Z,5.90
2023-02-11T07:54:54.721Z,9.00
2023-02-11T07:57:23.836Z,5.50
2023-02-11T07:59:51.763Z,6.73
2023-02-11T08:02:19.838Z,6.60
2023-02-11T08:04:48.102Z,5.67
2023-02-11T08:07:16.722Z,4.47
2023-02-11T08:09:44.622Z,4.00
2023-02-11T08:12:13.123Z,5.20
2023-02-11T08:14:42.573Z,6.03
2023-02-11T08:17:10.942Z,5.97
2023-02-11T08:19:39.682Z,5.33
2023-02-11T08:22:07.964Z,5.30
2023-02-11T08:24:35.856Z,4.50
2023-02-11T08:27:03.835Z,5.77
2023-02-11T08:29:31.743Z,3.90
2023-02-11T08:32:01.508Z,4.10
2023-02-11T08:34:29.583Z,3.73
2023-02-11T08:36:57.601Z,4.70
2023-02-11T08:39:25.530Z,5.43
2023-02-11T08:41:54.839Z,3.47
2023-02-11T08:44:22.832Z,4.53
2023-02-11T08:46:51.191Z,4.37
2023-02-11T08:49:21.152Z,3.90
2023-02-11T08:51:49.227Z,6.77
2023-02-11T08:54:17.122Z,6.80
2023-02-11T08:56:45.107Z,3.33
2023-02-11T08:59:14.906Z,3.60
2023-02-11T09:01:44.176Z,4.63
2023-02-11T09:04:12.759Z,7.07
2023-02-11T09:06:42.086Z,5.53
2023-02-11T09:09:11.813Z,4.33
2023-02-11T09:11:41.786Z,4.40
2023-02-11T09:14:09.889Z,3.37
2023-02-11T09:16:38.423Z,8.17
2023-02-11T09:19:06.614Z,5.10
2023-02-11T09:21:34.776Z,3.37
2023-02-11T09:24:04.295Z,6.50
2023-02-11T09:26:36.497Z,3.50
2023-02-11T09:29:04.616Z,3.07
2023-02-11T09:31:33.629Z,5.43
2023-02-11T09:34:02.518Z,3.70
2023-02-11T09:36:32.074Z,4.10
2023-02-11T09:39:00.668Z,3.63
2023-02-11T09:41:47.914Z,4.20
2023-02-11T09:44:19.612Z,4.13
2023-02-11T09:46:49.440Z,3.43
2023-02-11T09:49:19.540Z,5.43
2023-02-11T09:51:49.376Z,3.77
2023-02-11T09:54:20.513Z,3.30
2023-02-11T09:56:49.854Z,3.27
2023-02-11T09:59:17.805Z,4.20
2023-02-11T10:01:48.479Z,5.00
2023-02-11T10:04:20.353Z,4.07
2023-02-11T10:06:49.207Z,4.47
2023-02-11T10:09:27.321Z,5.60
2023-02-11T10:12:01.527Z,5.90
2023-02-11T10:14:57.489Z,4.13
2023-02-11T10:17:28.430Z,5.30
2023-02-11T10:20:04.716Z,3.30
2023-02-11T10:22:33.906Z,3.70
2023-02-11T10:25:01.601Z,3.40
2023-02-11T10:27:33.309Z,3.13
2023-02-11T10:30:03.977Z,4.30
2023-02-11T10:32:34.458Z,3.20
2023-02-11T10:35:04.446Z,4.17
2023-02-11T10:37:32.243Z,3.73
2023-02-11T10:40:00.326Z,3.67
2023-02-11T10:42:28.284Z,5.07
2023-02-11T10:44:59.573Z,6.27
2023-02-11T10:47:29.703Z,3.60
2023-02-11T10:50:06.699Z,6.30
2023-02-11T10:52:34.681Z,4.90
2023-02-11T10:55:04.585Z,4.90
2023-02-11T10:57:35.446Z,3.00
2023-02-11T11:00:22.405Z,9.80
2023-02-11T11:02:54.342Z,4.03
2023-02-11T11:05:25.042Z,3.90
2023-02-11T11:07:53.577Z,4.07
2023-02-11T11:10:29.354Z,3.30
2023-02-11T11:12:57.327Z,3.40
2023-02-11T11:15:27.181Z,5.47
2023-02-11T11:18:21.503Z,4.87
2023-02-11T11:20:57.013Z,3.37
2023-02-11T11:23:25.809Z,3.80
2023-02-11T11:26:02.592Z,6.30
2023-02-11T11:28:31.000Z,3.03
2023-02-11T11:31:00.383Z,5.20
2023-02-11T11:33:30.524Z,3.70
2023-02-11T11:36:06.931Z,3.93
2023-02-11T11:38:36.259Z,4.07
2023-02-11T11:41:21.098Z,3.00
2023-02-11T11:44:03.996Z,2.93
2023-02-11T11:46:35.434Z,3.77
2023-02-11T11:49:08.883Z,5.83
2023-02-11T11:51:37.705Z,8.60
2023-02-11T11:54:08.114Z,6.47
2023-02-11T11:56:36.634Z,6.27
2023-02-11T11:59:08.184Z,4.23
2023-02-11T12:01:45.077Z,5.07
2023-02-11T12:04:37.929Z,5.13
2023-02-11T12:07:12.905Z,4.90
2023-02-11T12:09:45.058Z,9.00
2023-02-11T12:12:19.808Z,6.30
2023-02-11T12:14:50.911Z,14.43
2023-02-11T12:17:28.252Z,11.30
2023-02-11T12:20:00.631Z,6.30
2023-02-11T12:22:35.620Z,9.60
2023-02-11T12:25:17.343Z,11.80
2023-02-11T12:27:49.648Z,12.40
2023-02-11T12:30:30.191Z,8.83
2023-02-11T12:33:02.510Z,9.73
2023-02-11T12:35:35.740Z,12.27
2023-02-11T12:38:26.393Z,7.13
2023-02-11T12:40:59.858Z,6.83
2023-02-11T12:43:30.899Z,7.70
2023-02-11T12:46:13.684Z,7.13
2023-02-11T12:48:57.976Z,14.63
2023-02-11T12:51:32.387Z,5.70
2023-02-11T12:54:18.807Z,10.80
2023-02-11T12:56:49.263Z,10.50
2023-02-11T12:59:20.935Z,7.53
2023-02-11T13:01:49.067Z,7.83
2023-02-11T13:04:20.866Z,10.03
2023-02-11T13:06:51.421Z,10.00
2023-02-11T13:09:21.074Z,8.93
2023-02-11T13:11:52.004Z,11.37
2023-02-11T13:14:26.892Z,8.10
2023-02-11T13:16:54.895Z,5.67
2023-02-11T13:19:26.628Z,8.47
2023-02-11T13:22:02.422Z,7.07
2023-02-11T13:24:37.954Z,7.77
2023-02-11T13:27:11.438Z,12.77
2023-02-11T13:30:05.164Z,7.97
2023-02-11T13:33:18.712Z,9.00
2023-02-11T13:35:51.182Z,6.00
2023-02-11T13:38:19.920Z,10.03
2023-02-11T13:40:49.605Z,7.60
2023-02-11T13:43:22.067Z,9.10
2023-02-11T13:45:50.168Z,11.67
2023-02-11T13:48:20.910Z,15.57
2023-02-11T13:50:51.384Z,5.50
2023-02-11T13:53:19.516Z,7.77
2023-02-11T13:55:48.418Z,12.03
2023-02-11T13:58:37.185Z,6.90
2023-02-11T14:01:05.666Z,6.73
2023-02-11T14:03:52.861Z,9.60
2023-02-11T14:06:41.664Z,11.00
2023-02-11T14:09:39.070Z,5.00
2023-02-11T14:12:33.080Z,6.10
2023-02-11T14:15:21.351Z,8.80
2023-02-11T14:17:49.539Z,5.80
2023-02-11T14:20:44.092Z,6.70
2023-02-11T14:23:24.712Z,8.40
2023-02-11T14:25:58.043Z,6.90
2023-02-11T14:28:33.059Z,6.03
2023-02-11T14:31:04.368Z,8.00
2023-02-11T14:34:11.832Z,10.23
2023-02-11T14:37:11.614Z,8.60
2023-02-11T14:39:56.240Z,7.57
2023-02-11T14:42:26.975Z,11.10
2023-02-11T14:44:56.180Z,6.90
2023-02-11T14:47:25.683Z,7.47
2023-02-11T14:49:53.861Z,8.17
2023-02-11T14:52:27.730Z,13.57
2023-02-11T14:55:02.035Z,8.80
2023-02-11T14:57:30.903Z,7.73
2023-02-11T15:00:02.561Z,8.23
2023-02-11T15:02:32.181Z,9.23
2023-02-11T15:05:16.273Z,9.93
2023-02-11T15:07:46.602Z,8.77
2023-02-11T15:10:21.133Z,14.93
2023-02-11T15:12:50.384Z,13.87
2023-02-11T15:15:18.589Z,7.27
2023-02-11T15:17:46.641Z,14.00
2023-02-11T15:20:20.023Z,7.70
2023-02-11T15:22:47.880Z,11.20
2023-02-11T15:25:19.696Z,6.73
2023-02-11T15:27:50.043Z,6.50
2023-02-11T15:30:26.790Z,8.53
2023-02-11T15:32:58.954Z,10.60
2023-02-11T15:35:28.727Z,9.90
2023-02-11T15:37:57.815Z,8.93
2023-02-11T15:40:27.742Z,12.97
2023-02-11T15:42:58.774Z,12.80
2023-02-11T15:45:29.870Z,10.10
2023-02-11T15:48:00.256Z,13.37
2023-02-11T15:50:29.231Z,8.50
2023-02-11T15:52:57.703Z,8.43
2023-02-11T15:55:25.784Z,8.20
2023-02-11T15:57:55.144Z,12.00
2023-02-11T16:00:25.612Z,9.17
2023-02-11T16:02:53.394Z,8.53
2023-02-11T16:05:29.716Z,9.73
2023-02-11T16:07:58.292Z,12.53
2023-02-11T16:10:27.922Z,7.80
2023-02-11T16:13:00.289Z,8.57
2023-02-11T16:15:48.081Z,12.13
2023-02-11T16:18:39.525Z,9.50
2023-02-11T16:21:09.371Z,7.47
2023-02-11T16:23:37.884Z,10.70
2023-02-11T16:26:08.758Z,8.23
2023-02-11T16:28:37.610Z,6.80
2023-02-11T16:31:07.158Z,10.13
2023-02-11T16:33:35.337Z,7.47
2023-02-11T16:36:04.045Z,7.20
2023-02-11T16:38:33.519Z,9.40
2023-02-11T16:41:01.431Z,13.03
2023-02-11T16:43:29.314Z,10.27
2023-02-11T16:45:57.143Z,9.23
2023-02-11T16:48:26.739Z,9.93
2023-02-11T16:50:55.207Z,9.80
2023-02-11T16:53:24.314Z,10.80
2023-02-11T16:55:52.181Z,10.37
2023-02-11T16:58:20.079Z,6.20
2023-02-11T17:00:48.369Z,9.87
2023-02-11T17:03:18.401Z,7.43
2023-02-11T17:05:55.352Z,7.00
2023-02-11T17:08:23.945Z,5.67
2023-02-11T17:10:52.145Z,9.33
2023-02-11T17:13:20.786Z,8.03
2023-02-11T17:15:49.232Z,10.47
2023-02-11T17:18:17.170Z,7.80
2023-02-11T17:20:45.151Z,7.77
2023-02-11T17:23:14.342Z,6.30
2023-02-11T17:25:42.605Z,11.57
2023-02-11T17:28:12.123Z,10.37
2023-02-11T17:30:42.036Z,8.10
2023-02-11T17:33:09.993Z,11.70
2023-02-11T17:35:41.323Z,11.87
2023-02-11T17:38:09.239Z,11.67
2023-02-11T17:40:38.695Z,8.93
2023-02-11T17:43:06.591Z,7.83
2023-02-11T17:45:34.604Z,8.53
2023-02-11T17:48:02.634Z,9.43
2023-02-11T17:50:30.500Z,8.33
2023-02-11T17:52:58.878Z,6.87
2023-02-11T17:55:27.039Z,11.03
2023-02-11T17:58:05.632Z,6.73
2023-02-11T18:00:33.783Z,5.97
2023-02-11T18:03:03.034Z,8.30
2023-02-11T18:05:35.232Z,6.70
2023-02-11T18:08:03.419Z,8.93
2023-02-11T18:10:31.832Z,7.10
2023-02-11T18:13:01.401Z,8.50
2023-02-11T18:15:29.470Z,12.60
2023-02-11T18:17:57.506Z,6.50
2023-02-11T18:20:25.414Z,6.63
2023-02-11T18:22:53.369Z,10.67
2023-02-11T18:25:21.412Z,10.97
2023-02-11T18:27:49.532Z,24.03
2023-02-11T18:30:20.593Z,25.83
2023-02-11T18:32:48.695Z,28.30
2023-02-11T18:35:17.263Z,27.30
2023-02-11T18:37:45.271Z,36.10
2023-02-11T18:40:14.184Z,17.53
2023-02-11T18:42:42.965Z,19.13
2023-02-11T18:45:15.283Z,17.33
2023-02-11T18:47:44.728Z,24.70
2023-02-11T18:50:16.072Z,20.30
2023-02-11T18:52:44.364Z,14.67
2023-02-11T18:55:13.642Z,21.23
2023-02-11T18:57:42.884Z,16.40
2023-02-11T19:00:11.547Z,11.67
2023-02-11T19:02:39.650Z,21.33
2023-02-11T19:05:09.123Z,17.37
2023-02-11T19:07:37.107Z,18.63
2023-02-11T19:10:05.246Z,20.40
2023-02-11T19:12:34.351Z,20.13
2023-02-11T19:15:02.969Z,17.20
2023-02-11T19:17:30.916Z,13.83
2023-02-11T19:19:58.910Z,12.90
2023-02-11T19:22:28.754Z,12.90
2023-02-11T19:24:56.624Z,15.93
2023-02-11T19:27:24.624Z,9.27
2023-02-11T19:29:52.533Z,17.90
2023-02-11T19:32:20.480Z,9.27
2023-02-11T19:34:48.491Z,12.93
2023-02-11T19:37:16.839Z,16.13
2023-02-11T19:39:46.164Z,14.37
2023-02-11T19:42:14.598Z,14.57
2023-02-11T19:44:42.520Z,17.27
2023-02-11T19:47:13.207Z,12.97
2023-02-11T19:49:41.122Z,12.93
2023-02-11T19:52:08.885Z,14.20
2023-02-11T19:54:36.584Z,15.43
2023-02-11T19:57:05.614Z,15.77
2023-02-11T19:59:33.587Z,10.47
2023-02-11T20:02:01.704Z,13.90
2023-02-11T20:04:32.149Z,7.03
2023-02-11T20:07:00.388Z,9.23
2023-02-11T20:09:29.175Z,20.03
2023-02-11T20:11:57.039Z,14.90
2023-02-11T20:14:28.119Z,10.30
2023-02-11T20:16:56.315Z,12.23
2023-02-11T20:19:24.355Z,9.90
2023-02-11T20:21:53.008Z,13.10
2023-02-11T20:24:21.090Z,9.37
2023-02-11T20:26:49.149Z,8.63
2023-02-11T20:29:17.393Z,11.57
2023-02-11T20:31:47.042Z,14.87
2023-02-11T20:34:16.976Z,16.20
2023-02-11T20:36:51.332Z,12.70
2023-02-11T20:39:19.185Z,11.40
2023-02-11T20:41:46.931Z,8.00
2023-02-11T20:44:14.938Z,9.07
2023-02-11T20:46:44.069Z,8.17
2023-02-11T20:49:13.326Z,8.57
2023-02-11T20:51:41.572Z,8.37
2023-02-11T20:54:12.861Z,7.87
2023-02-11T20:56:40.990Z,8.27
2023-02-11T20:59:08.873Z,5.50
2023-02-11T21:01:38.242Z,11.73
2023-02-11T21:04:07.026Z,8.00
2023-02-11T21:06:38.177Z,7.23
2023-02-11T21:09:06.666Z,11.27
2023-02-11T21:11:34.693Z,7.67
2023-02-11T21:14:03.285Z,6.40
2023-02-11T21:16:31.028Z,6.87
2023-02-11T21:18:59.238Z,10.83
2023-02-11T21:21:26.915Z,10.40
2023-02-11T21:23:56.663Z,6.10
2023-02-11T21:26:24.600Z,11.20
2023-02-11T21:28:53.530Z,8.93
2023-02-11T21:31:23.138Z,13.30
2023-02-11T21:33:51.552Z,11.10
2023-02-11T21:36:19.540Z,10.40
2023-02-11T21:38:47.367Z,8.37
2023-02-11T21:41:17.277Z,5.63
2023-02-11T21:43:45.278Z,8.57
2023-02-11T21:46:15.004Z,5.53
2023-02-11T21:48:42.900Z,8.07
2023-02-11T21:51:12.731Z,10.07
2023-02-11T21:53:40.707Z,8.77
2023-02-11T21:56:13.390Z,7.80
2023-02-11T21:58:42.720Z,7.60
2023-02-11T22:01:15.464Z,6.63
2023-02-11T22:03:43.276Z,4.90
2023-02-11T22:06:12.598Z,12.43
2023-02-11T22:08:40.841Z,5.97
2023-02-11T22:11:09.561Z,8.33
2023-02-11T22:13:37.665Z,7.87
2023-02-11T22:16:08.633Z,6.90
2023-02-11T22:18:36.519Z,6.63
2023-02-11T22:21:05.348Z,4.90
2023-02-11T22:23:33.125Z,9.40
2023-02-11T22:26:04.169Z,10.90
2023-02-11T22:28:32.613Z,7.30
2023-02-11T22:31:00.673Z,3.90
2023-02-11T22:33:29.748Z,8.53
2023-02-11T22:36:00.671Z,6.20
2023-02-11T22:38:28.871Z,10.00
2023-02-11T22:40:56.690Z,5.60
2023-02-11T22:43:24.563Z,5.87
2023-02-11T22:45:52.420Z,6.97
2023-02-11T22:48:23.059Z,8.63
2023-02-11T22:50:52.559Z,6.30
2023-02-11T22:53:20.779Z,10.70
2023-02-11T22:55:48.635Z,8.67
2023-02-11T22:58:16.340Z,5.67
2023-02-11T23:00:44.049Z,5.80
2023-02-11T23:03:12.332Z,8.93
2023-02-11T23:05:40.449Z,6.43
2023-02-11T23:08:10.513Z,4.30
2023-02-11T23:10:38.556Z,3.97
2023-02-11T23:13:06.895Z,7.27
2023-02-11T23:15:34.982Z,8.97
2023-02-11T23:18:02.872Z,4.00
2023-02-11T23:20:31.145Z,6.87
2023-02-11T23:22:58.975Z,7.93
2023-02-11T23:25:28.181Z,4.17
2023-02-11T23:27:56.039Z,13.23
2023-02-11T23:30:24.022Z,6.20
2023-02-11T23:32:52.074Z,6.43
2023-02-11T23:35:23.210Z,3.30
2023-02-11T23:37:51.241Z,6.03
2023-02-11T23:40:19.250Z,5.80
2023-02-11T23:42:49.085Z,6.93
2023-02-11T23:45:17.143Z,4.47
2023-02-11T23:47:45.154Z,6.63
2023-02-11T23:50:13.625Z,6.93
2023-02-11T23:52:41.438Z,7.13
2023-02-11T23:55:09.501Z,5.90
2023-02-11T23:57:37.773Z,4.73
